sensor_id;sensor_type;location;lat;lon;timestamp;temperature;humidity
17565;DHT22;62994;52.126;5.596;2023-04-06T00:01:39;7.70;99.90
17565;DHT22;62994;52.126;5.596;2023-04-06T00:04:08;7.70;99.90
17565;DHT22;62994;52.126;5.596;2023-04-06T00:06:35;7.60;99.90
17565;DHT22;62994;52.126;5.596;2023-04-06T00:09:02;7.60;99.90
17565;DHT22;62994;52.126;5.596;2023-04-06T00:11:29;7.60;99.90
17565;DHT22;62994;52.126;5.596;2023-04-06T00:13:56;7.50;99.90
17565;DHT22;62994;52.126;5.596;2023-04-06T00:16:23;7.50;99.90
17565;DHT22;62994;52.126;5.596;2023-04-06T00:18:50;7.50;99.90
17565;DHT22;62994;52.126;5.596;2023-04-06T00:21:18;7.40;99.90
17565;DHT22;62994;52.126;5.596;2023-04-06T00:23:46;7.40;99.90
17565;DHT22;62994;52.126;5.596;2023-04-06T00:26:13;7.30;99.90
17565;DHT22;62994;52.126;5.596;2023-04-06T00:28:40;7.30;99.90
17565;DHT22;62994;52.126;5.596;2023-04-06T00:31:07;7.20;99.90
17565;DHT22;62994;52.126;5.596;2023-04-06T00:33:34;7.20;99.90
17565;DHT22;62994;52.126;5.596;2023-04-06T00:36:01;7.10;99.90
17565;DHT22;62994;52.126;5.596;2023-04-06T00:38:29;7.10;99.90
17565;DHT22;62994;52.126;5.596;2023-04-06T00:40:56;7.00;99.90
17565;DHT22;62994;52.126;5.596;2023-04-06T00:43:23;7.10;99.90
17565;DHT22;62994;52.126;5.596;2023-04-06T00:45:51;7.00;99.90
17565;DHT22;62994;52.126;5.596;2023-04-06T00:48:18;7.00;99.90
17565;DHT22;62994;52.126;5.596;2023-04-06T00:50:45;7.00;99.90
17565;DHT22;62994;52.126;5.596;2023-04-06T00:53:12;7.00;99.90
17565;DHT22;62994;52.126;5.596;2023-04-06T00:55:40;6.90;99.90
17565;DHT22;62994;52.126;5.596;2023-04-06T00:58:07;6.90;99.90
17565;DHT22;62994;52.126;5.596;2023-04-06T01:00:34;6.90;99.90
17565;DHT22;62994;52.126;5.596;2023-04-06T01:03:02;6.90;99.90
17565;DHT22;62994;52.126;5.596;2023-04-06T01:05:33;6.90;99.90
17565;DHT22;62994;52.126;5.596;2023-04-06T01:08:00;6.90;99.90
17565;DHT22;62994;52.126;5.596;2023-04-06T01:10:28;6.80;99.90
17565;DHT22;62994;52.126;5.596;2023-04-06T01:12:57;6.80;99.90
17565;DHT22;62994;52.126;5.596;2023-04-06T01:15:24;6.80;99.90
17565;DHT22;62994;52.126;5.596;2023-04-06T01:17:52;6.80;99.90
17565;DHT22;62994;52.126;5.596;2023-04-06T01:20:19;6.80;99.90
17565;DHT22;62994;52.126;5.596;2023-04-06T01:22:48;6.80;99.90
17565;DHT22;62994;52.126;5.596;2023-04-06T01:25:15;6.70;99.90
17565;DHT22;62994;52.126;5.596;2023-04-06T01:27:42;6.70;99.90
17565;DHT22;62994;52.126;5.596;2023-04-06T01:30:10;6.60;99.90
17565;DHT22;62994;52.126;5.596;2023-04-06T01:32:37;6.60;99.90
17565;DHT22;62994;52.126;5.596;2023-04-06T01:35:04;6.60;99.90
17565;DHT22;62994;52.126;5.596;2023-04-06T01:37:31;6.60;99.90
17565;DHT22;62994;52.126;5.596;2023-04-06T01:40:00;6.60;99.90
17565;DHT22;62994;52.126;5.596;2023-04-06T01:42:27;6.50;99.90
17565;DHT22;62994;52.126;5.596;2023-04-06T01:44:55;6.50;99.90
17565;DHT22;62994;52.126;5.596;2023-04-06T01:47:22;6.50;99.90
17565;DHT22;62994;52.126;5.596;2023-04-06T01:49:49;6.50;99.90
17565;DHT22;62994;52.126;5.596;2023-04-06T01:52:16;6.50;99.90
17565;DHT22;62994;52.126;5.596;2023-04-06T01:54:43;6.40;99.90
17565;DHT22;62994;52.126;5.596;2023-04-06T01:57:12;6.40;99.90
17565;DHT22;62994;52.126;5.596;2023-04-06T01:59:39;6.40;99.90
17565;DHT22;62994;52.126;5.596;2023-04-06T02:02:06;6.40;99.90
17565;DHT22;62994;52.126;5.596;2023-04-06T02:04:33;6.40;99.90
17565;DHT22;62994;52.126;5.596;2023-04-06T02:07:00;6.30;99.90
17565;DHT22;62994;52.126;5.596;2023-04-06T02:09:27;6.30;99.90
17565;DHT22;62994;52.126;5.596;2023-04-06T02:11:54;6.30;99.90
17565;DHT22;62994;52.126;5.596;2023-04-06T02:14:24;6.20;99.90
17565;DHT22;62994;52.126;5.596;2023-04-06T02:16:52;6.20;99.90
17565;DHT22;62994;52.126;5.596;2023-04-06T02:19:19;6.20;99.90
17565;DHT22;62994;52.126;5.596;2023-04-06T02:21:46;6.10;99.90
17565;DHT22;62994;52.126;5.596;2023-04-06T02:24:13;6.10;99.90
17565;DHT22;62994;52.126;5.596;2023-04-06T02:26:40;6.10;99.90
17565;DHT22;62994;52.126;5.596;2023-04-06T02:29:07;6.10;99.90
17565;DHT22;62994;52.126;5.596;2023-04-06T02:31:35;6.10;99.90
17565;DHT22;62994;52.126;5.596;2023-04-06T02:34:02;6.10;99.90
17565;DHT22;62994;52.126;5.596;2023-04-06T02:36:29;6.10;99.90
17565;DHT22;62994;52.126;5.596;2023-04-06T02:38:56;6.10;99.90
17565;DHT22;62994;52.126;5.596;2023-04-06T02:41:23;6.10;99.90
17565;DHT22;62994;52.126;5.596;2023-04-06T02:43:50;6.00;99.90
17565;DHT22;62994;52.126;5.596;2023-04-06T02:46:17;6.00;99.90
17565;DHT22;62994;52.126;5.596;2023-04-06T02:48:46;6.00;99.90
17565;DHT22;62994;52.126;5.596;2023-04-06T02:51:13;6.10;99.90
17565;DHT22;62994;52.126;5.596;2023-04-06T02:53:40;6.10;99.90
17565;DHT22;62994;52.126;5.596;2023-04-06T02:56:07;6.00;99.90
17565;DHT22;62994;52.126;5.596;2023-04-06T02:58:34;6.00;99.90
17565;DHT22;62994;52.126;5.596;2023-04-06T03:01:01;6.00;99.90
17565;DHT22;62994;52.126;5.596;2023-04-06T03:03:28;6.00;99.90
17565;DHT22;62994;52.126;5.596;2023-04-06T03:05:57;6.00;99.90
17565;DHT22;62994;52.126;5.596;2023-04-06T03:08:25;6.10;99.90
17565;DHT22;62994;52.126;5.596;2023-04-06T03:10:52;6.10;99.90
17565;DHT22;62994;52.126;5.596;2023-04-06T03:13:20;6.10;99.90
17565;DHT22;62994;52.126;5.596;2023-04-06T03:15:47;6.10;99.90
17565;DHT22;62994;52.126;5.596;2023-04-06T03:18:14;6.10;99.90
17565;DHT22;62994;52.126;5.596;2023-04-06T03:20:41;6.10;99.90
17565;DHT22;62994;52.126;5.596;2023-04-06T03:23:09;6.10;99.90
17565;DHT22;62994;52.126;5.596;2023-04-06T03:25:36;6.10;99.90
17565;DHT22;62994;52.126;5.596;2023-04-06T03:28:05;6.10;99.90
17565;DHT22;62994;52.126;5.596;2023-04-06T03:30:32;6.20;99.90
17565;DHT22;62994;52.126;5.596;2023-04-06T03:32:59;6.10;99.90
17565;DHT22;62994;52.126;5.596;2023-04-06T03:35:26;6.10;99.90
17565;DHT22;62994;52.126;5.596;2023-04-06T03:37:53;6.10;99.90
17565;DHT22;62994;52.126;5.596;2023-04-06T03:40:21;6.10;99.90
17565;DHT22;62994;52.126;5.596;2023-04-06T03:42:48;6.10;99.90
17565;DHT22;62994;52.126;5.596;2023-04-06T03:45:15;6.10;99.90
17565;DHT22;62994;52.126;5.596;2023-04-06T03:47:42;6.10;99.90
17565;DHT22;62994;52.126;5.596;2023-04-06T03:50:10;6.00;99.90
17565;DHT22;62994;52.126;5.596;2023-04-06T03:52:37;6.00;99.90
17565;DHT22;62994;52.126;5.596;2023-04-06T03:55:05;6.00;99.90
17565;DHT22;62994;52.126;5.596;2023-04-06T03:57:34;5.90;99.90
17565;DHT22;62994;52.126;5.596;2023-04-06T04:00:01;6.00;99.90
17565;DHT22;62994;52.126;5.596;2023-04-06T04:02:28;5.90;99.90
17565;DHT22;62994;52.126;5.596;2023-04-06T04:04:55;6.00;99.90
17565;DHT22;62994;52.126;5.596;2023-04-06T04:07:22;6.00;99.90
17565;DHT22;62994;52.126;5.596;2023-04-06T04:09:49;6.00;99.90
17565;DHT22;62994;52.126;5.596;2023-04-06T04:12:16;6.00;99.90
17565;DHT22;62994;52.126;5.596;2023-04-06T04:14:44;6.10;99.90
17565;DHT22;62994;52.126;5.596;2023-04-06T04:17:11;6.00;99.90
17565;DHT22;62994;52.126;5.596;2023-04-06T04:19:38;5.90;99.90
17565;DHT22;62994;52.126;5.596;2023-04-06T04:22:05;6.00;99.90
17565;DHT22;62994;52.126;5.596;2023-04-06T04:24:33;6.00;99.90
17565;DHT22;62994;52.126;5.596;2023-04-06T04:27:00;6.00;99.90
17565;DHT22;62994;52.126;5.596;2023-04-06T04:29:27;6.10;99.90
17565;DHT22;62994;52.126;5.596;2023-04-06T04:31:56;6.10;99.90
17565;DHT22;62994;52.126;5.596;2023-04-06T04:34:23;6.00;99.90
17565;DHT22;62994;52.126;5.596;2023-04-06T04:36:50;6.10;99.90
17565;DHT22;62994;52.126;5.596;2023-04-06T04:39:17;6.00;99.90
17565;DHT22;62994;52.126;5.596;2023-04-06T04:41:44;6.00;99.90
17565;DHT22;62994;52.126;5.596;2023-04-06T04:44:11;6.00;99.90
17565;DHT22;62994;52.126;5.596;2023-04-06T04:46:39;6.00;99.90
17565;DHT22;62994;52.126;5.596;2023-04-06T04:49:08;5.90;99.90
17565;DHT22;62994;52.126;5.596;2023-04-06T04:51:35;5.90;99.90
17565;DHT22;62994;52.126;5.596;2023-04-06T04:54:02;5.90;99.90
17565;DHT22;62994;52.126;5.596;2023-04-06T04:56:29;5.80;99.90
17565;DHT22;62994;52.126;5.596;2023-04-06T04:58:56;5.80;99.90
17565;DHT22;62994;52.126;5.596;2023-04-06T05:01:23;5.80;99.90
17565;DHT22;62994;52.126;5.596;2023-04-06T05:03:50;5.70;99.90
17565;DHT22;62994;52.126;5.596;2023-04-06T05:06:19;5.70;99.90
17565;DHT22;62994;52.126;5.596;2023-04-06T05:08:46;5.70;99.90
17565;DHT22;62994;52.126;5.596;2023-04-06T05:11:13;5.70;99.90
17565;DHT22;62994;52.126;5.596;2023-04-06T05:13:40;5.70;99.90
17565;DHT22;62994;52.126;5.596;2023-04-06T05:16:07;5.60;99.90
17565;DHT22;62994;52.126;5.596;2023-04-06T05:18:35;5.60;99.90
17565;DHT22;62994;52.126;5.596;2023-04-06T05:21:02;5.60;99.90
17565;DHT22;62994;52.126;5.596;2023-04-06T05:23:30;5.60;99.90
17565;DHT22;62994;52.126;5.596;2023-04-06T05:25:57;5.60;99.90
17565;DHT22;62994;52.126;5.596;2023-04-06T05:28:25;5.60;99.90
17565;DHT22;62994;52.126;5.596;2023-04-06T05:30:52;5.60;99.90
17565;DHT22;62994;52.126;5.596;2023-04-06T05:33:20;5.60;99.90
17565;DHT22;62994;52.126;5.596;2023-04-06T05:35:47;5.60;99.90
17565;DHT22;62994;52.126;5.596;2023-04-06T05:38:14;5.60;99.90
17565;DHT22;62994;52.126;5.596;2023-04-06T05:40:42;5.70;99.90
17565;DHT22;62994;52.126;5.596;2023-04-06T05:43:09;5.70;99.90
17565;DHT22;62994;52.126;5.596;2023-04-06T05:45:36;5.70;99.90
17565;DHT22;62994;52.126;5.596;2023-04-06T05:48:03;5.70;99.90
17565;DHT22;62994;52.126;5.596;2023-04-06T05:50:30;5.70;99.90
17565;DHT22;62994;52.126;5.596;2023-04-06T05:52:57;5.70;99.90
17565;DHT22;62994;52.126;5.596;2023-04-06T05:55:24;5.70;99.90
17565;DHT22;62994;52.126;5.596;2023-04-06T05:57:53;5.80;99.90
17565;DHT22;62994;52.126;5.596;2023-04-06T06:00:20;5.80;99.90
17565;DHT22;62994;52.126;5.596;2023-04-06T06:02:47;5.90;99.90
17565;DHT22;62994;52.126;5.596;2023-04-06T06:05:14;6.10;99.90
17565;DHT22;62994;52.126;5.596;2023-04-06T06:07:41;6.20;99.90
17565;DHT22;62994;52.126;5.596;2023-04-06T06:10:09;6.20;99.90
17565;DHT22;62994;52.126;5.596;2023-04-06T06:12:36;6.20;99.90
17565;DHT22;62994;52.126;5.596;2023-04-06T06:15:06;6.20;99.90
17565;DHT22;62994;52.126;5.596;2023-04-06T06:17:33;6.30;99.90
17565;DHT22;62994;52.126;5.596;2023-04-06T06:20:00;6.30;99.90
17565;DHT22;62994;52.126;5.596;2023-04-06T06:22:27;6.40;99.90
17565;DHT22;62994;52.126;5.596;2023-04-06T06:24:54;6.40;99.90
17565;DHT22;62994;52.126;5.596;2023-04-06T06:27:21;6.40;99.90
17565;DHT22;62994;52.126;5.596;2023-04-06T06:29:48;6.50;99.90
17565;DHT22;62994;52.126;5.596;2023-04-06T06:32:17;6.60;99.90
17565;DHT22;62994;52.126;5.596;2023-04-06T06:34:44;6.60;99.90
17565;DHT22;62994;52.126;5.596;2023-04-06T06:37:11;6.70;99.90
17565;DHT22;62994;52.126;5.596;2023-04-06T06:39:38;6.70;99.90
17565;DHT22;62994;52.126;5.596;2023-04-06T06:42:05;6.70;99.90
17565;DHT22;62994;52.126;5.596;2023-04-06T06:44:32;6.80;99.90
17565;DHT22;62994;52.126;5.596;2023-04-06T06:46:59;6.80;99.90
17565;DHT22;62994;52.126;5.596;2023-04-06T06:49:28;6.90;99.90
17565;DHT22;62994;52.126;5.596;2023-04-06T06:51:55;6.90;99.90
17565;DHT22;62994;52.126;5.596;2023-04-06T06:54:22;7.00;99.90
17565;DHT22;62994;52.126;5.596;2023-04-06T06:56:49;7.10;99.90
17565;DHT22;62994;52.126;5.596;2023-04-06T06:59:18;7.20;99.90
17565;DHT22;62994;52.126;5.596;2023-04-06T07:01:46;7.30;99.90
17565;DHT22;62994;52.126;5.596;2023-04-06T07:04:14;7.30;99.90
17565;DHT22;62994;52.126;5.596;2023-04-06T07:06:43;7.30;99.90
17565;DHT22;62994;52.126;5.596;2023-04-06T07:09:13;7.40;99.90
17565;DHT22;62994;52.126;5.596;2023-04-06T07:11:41;7.40;99.90
17565;DHT22;62994;52.126;5.596;2023-04-06T07:14:09;7.50;99.90
17565;DHT22;62994;52.126;5.596;2023-04-06T07:16:38;7.60;99.90
17565;DHT22;62994;52.126;5.596;2023-04-06T07:19:05;7.60;99.90
17565;DHT22;62994;52.126;5.596;2023-04-06T07:21:35;7.70;99.90
17565;DHT22;62994;52.126;5.596;2023-04-06T07:24:04;7.70;99.90
17565;DHT22;62994;52.126;5.596;2023-04-06T07:26:34;7.80;99.90
17565;DHT22;62994;52.126;5.596;2023-04-06T07:29:03;7.90;99.90
17565;DHT22;62994;52.126;5.596;2023-04-06T07:31:30;7.90;99.90
17565;DHT22;62994;52.126;5.596;2023-04-06T07:33:58;8.00;99.90
17565;DHT22;62994;52.126;5.596;2023-04-06T07:36:25;8.00;99.90
17565;DHT22;62994;52.126;5.596;2023-04-06T07:38:53;8.00;99.90
17565;DHT22;62994;52.126;5.596;2023-04-06T07:41:21;8.00;99.90
17565;DHT22;62994;52.126;5.596;2023-04-06T07:43:49;8.00;99.90
17565;DHT22;62994;52.126;5.596;2023-04-06T07:46:16;8.00;99.90
17565;DHT22;62994;52.126;5.596;2023-04-06T07:48:43;8.10;99.90
17565;DHT22;62994;52.126;5.596;2023-04-06T07:51:10;8.10;99.90
17565;DHT22;62994;52.126;5.596;2023-04-06T07:53:40;8.10;99.90
17565;DHT22;62994;52.126;5.596;2023-04-06T07:56:07;8.20;99.90
17565;DHT22;62994;52.126;5.596;2023-04-06T07:58:36;8.20;99.90
17565;DHT22;62994;52.126;5.596;2023-04-06T08:01:03;8.30;99.90
17565;DHT22;62994;52.126;5.596;2023-04-06T08:03:30;8.30;99.90
17565;DHT22;62994;52.126;5.596;2023-04-06T08:06:00;8.30;99.90
17565;DHT22;62994;52.126;5.596;2023-04-06T08:08:28;8.30;99.90
17565;DHT22;62994;52.126;5.596;2023-04-06T08:10:56;8.20;99.90
17565;DHT22;62994;52.126;5.596;2023-04-06T08:13:23;8.30;99.90
17565;DHT22;62994;52.126;5.596;2023-04-06T08:15:52;8.30;99.90
17565;DHT22;62994;52.126;5.596;2023-04-06T08:18:19;8.30;99.90
17565;DHT22;62994;52.126;5.596;2023-04-06T08:20:46;8.30;99.90
17565;DHT22;62994;52.126;5.596;2023-04-06T08:23:14;8.30;99.90
17565;DHT22;62994;52.126;5.596;2023-04-06T08:25:43;8.40;99.90
17565;DHT22;62994;52.126;5.596;2023-04-06T08:28:10;8.50;99.90
17565;DHT22;62994;52.126;5.596;2023-04-06T08:30:39;8.50;99.90
17565;DHT22;62994;52.126;5.596;2023-04-06T08:33:08;8.60;99.90
17565;DHT22;62994;52.126;5.596;2023-04-06T08:35:35;8.60;99.90
17565;DHT22;62994;52.126;5.596;2023-04-06T08:38:02;8.70;99.90
17565;DHT22;62994;52.126;5.596;2023-04-06T08:40:30;8.80;99.90
17565;DHT22;62994;52.126;5.596;2023-04-06T08:43:03;8.80;99.90
17565;DHT22;62994;52.126;5.596;2023-04-06T08:45:34;8.80;99.90
17565;DHT22;62994;52.126;5.596;2023-04-06T08:48:03;8.90;99.90
17565;DHT22;62994;52.126;5.596;2023-04-06T08:50:32;9.00;99.90
17565;DHT22;62994;52.126;5.596;2023-04-06T08:52:59;9.00;99.90
17565;DHT22;62994;52.126;5.596;2023-04-06T08:55:27;9.10;99.90
17565;DHT22;62994;52.126;5.596;2023-04-06T08:57:55;9.10;99.90
17565;DHT22;62994;52.126;5.596;2023-04-06T09:00:22;9.10;99.90
17565;DHT22;62994;52.126;5.596;2023-04-06T09:02:54;9.20;99.90
17565;DHT22;62994;52.126;5.596;2023-04-06T09:05:22;9.20;99.90
17565;DHT22;62994;52.126;5.596;2023-04-06T09:07:52;9.10;99.90
17565;DHT22;62994;52.126;5.596;2023-04-06T09:10:19;9.10;99.90
17565;DHT22;62994;52.126;5.596;2023-04-06T09:12:49;9.20;99.90
17565;DHT22;62994;52.126;5.596;2023-04-06T09:15:21;9.20;99.90
17565;DHT22;62994;52.126;5.596;2023-04-06T09:17:48;9.30;99.90
17565;DHT22;62994;52.126;5.596;2023-04-06T09:20:22;9.40;99.90
17565;DHT22;62994;52.126;5.596;2023-04-06T09:22:52;9.40;99.90
17565;DHT22;62994;52.126;5.596;2023-04-06T09:25:20;9.50;99.90
17565;DHT22;62994;52.126;5.596;2023-04-06T09:27:57;9.60;99.90
17565;DHT22;62994;52.126;5.596;2023-04-06T09:30:25;9.60;99.90
17565;DHT22;62994;52.126;5.596;2023-04-06T09:32:54;9.60;99.90
17565;DHT22;62994;52.126;5.596;2023-04-06T09:35:22;9.80;99.90
17565;DHT22;62994;52.126;5.596;2023-04-06T09:37:53;9.80;99.90
17565;DHT22;62994;52.126;5.596;2023-04-06T09:40:20;9.90;99.90
17565;DHT22;62994;52.126;5.596;2023-04-06T09:42:49;9.90;99.90
17565;DHT22;62994;52.126;5.596;2023-04-06T09:45:17;10.00;99.90
17565;DHT22;62994;52.126;5.596;2023-04-06T09:47:45;10.00;99.90
17565;DHT22;62994;52.126;5.596;2023-04-06T09:50:13;10.20;99.90
17565;DHT22;62994;52.126;5.596;2023-04-06T09:52:46;10.20;99.90
17565;DHT22;62994;52.126;5.596;2023-04-06T09:55:20;10.30;99.90
17565;DHT22;62994;52.126;5.596;2023-04-06T09:57:53;10.30;99.90
17565;DHT22;62994;52.126;5.596;2023-04-06T10:00:23;10.30;99.90
17565;DHT22;62994;52.126;5.596;2023-04-06T10:02:58;10.30;99.90
17565;DHT22;62994;52.126;5.596;2023-04-06T10:05:32;10.40;99.90
17565;DHT22;62994;52.126;5.596;2023-04-06T10:08:04;10.40;99.90
17565;DHT22;62994;52.126;5.596;2023-04-06T10:10:34;10.50;99.90
17565;DHT22;62994;52.126;5.596;2023-04-06T10:13:02;10.50;99.90
17565;DHT22;62994;52.126;5.596;2023-04-06T10:15:31;10.60;99.90
17565;DHT22;62994;52.126;5.596;2023-04-06T10:17:58;10.60;99.90
17565;DHT22;62994;52.126;5.596;2023-04-06T10:20:29;10.60;99.90
17565;DHT22;62994;52.126;5.596;2023-04-06T10:23:02;10.70;99.90
17565;DHT22;62994;52.126;5.596;2023-04-06T10:25:33;10.80;99.90
17565;DHT22;62994;52.126;5.596;2023-04-06T10:30:28;10.90;99.90
17565;DHT22;62994;52.126;5.596;2023-04-06T10:32:55;11.00;99.90
17565;DHT22;62994;52.126;5.596;2023-04-06T10:35:23;11.10;99.90
17565;DHT22;62994;52.126;5.596;2023-04-06T10:37:52;11.30;99.90
17565;DHT22;62994;52.126;5.596;2023-04-06T10:40:22;11.30;99.90
17565;DHT22;62994;52.126;5.596;2023-04-06T10:42:51;11.40;99.90
17565;DHT22;62994;52.126;5.596;2023-04-06T10:45:20;11.40;99.90
17565;DHT22;62994;52.126;5.596;2023-04-06T10:47:47;11.50;99.90
17565;DHT22;62994;52.126;5.596;2023-04-06T10:50:15;11.50;99.90
17565;DHT22;62994;52.126;5.596;2023-04-06T10:52:44;11.50;99.90
17565;DHT22;62994;52.126;5.596;2023-04-06T10:55:13;11.60;99.90
17565;DHT22;62994;52.126;5.596;2023-04-06T10:57:40;11.70;99.90
17565;DHT22;62994;52.126;5.596;2023-04-06T11:00:12;11.70;99.90
17565;DHT22;62994;52.126;5.596;2023-04-06T11:02:40;11.60;99.90
17565;DHT22;62994;52.126;5.596;2023-04-06T11:05:07;11.60;99.90
17565;DHT22;62994;52.126;5.596;2023-04-06T11:07:35;11.70;99.90
17565;DHT22;62994;52.126;5.596;2023-04-06T11:10:02;11.80;99.90
17565;DHT22;62994;52.126;5.596;2023-04-06T11:12:30;11.80;99.90
17565;DHT22;62994;52.126;5.596;2023-04-06T11:14:58;11.70;99.90
17565;DHT22;62994;52.126;5.596;2023-04-06T11:17:31;11.60;99.90
17565;DHT22;62994;52.126;5.596;2023-04-06T11:19:59;11.60;99.90
17565;DHT22;62994;52.126;5.596;2023-04-06T11:22:26;11.60;99.90
17565;DHT22;62994;52.126;5.596;2023-04-06T11:25:03;11.50;99.90
17565;DHT22;62994;52.126;5.596;2023-04-06T11:27:31;11.50;99.90
17565;DHT22;62994;52.126;5.596;2023-04-06T11:29:59;11.50;99.90
17565;DHT22;62994;52.126;5.596;2023-04-06T11:32:26;11.50;99.90
17565;DHT22;62994;52.126;5.596;2023-04-06T11:34:54;11.50;99.90
17565;DHT22;62994;52.126;5.596;2023-04-06T11:37:26;11.40;99.90
17565;DHT22;62994;52.126;5.596;2023-04-06T11:39:54;11.40;99.90
17565;DHT22;62994;52.126;5.596;2023-04-06T11:42:23;11.20;99.90
17565;DHT22;62994;52.126;5.596;2023-04-06T11:44:51;11.30;99.90
17565;DHT22;62994;52.126;5.596;2023-04-06T11:47:18;11.20;99.90
17565;DHT22;62994;52.126;5.596;2023-04-06T11:49:46;11.20;99.90
17565;DHT22;62994;52.126;5.596;2023-04-06T11:52:17;11.30;99.90
17565;DHT22;62994;52.126;5.596;2023-04-06T11:54:46;11.20;99.90
17565;DHT22;62994;52.126;5.596;2023-04-06T11:57:14;11.20;99.90
17565;DHT22;62994;52.126;5.596;2023-04-06T11:59:42;11.20;99.90
17565;DHT22;62994;52.126;5.596;2023-04-06T12:02:09;11.10;99.90
17565;DHT22;62994;52.126;5.596;2023-04-06T12:04:37;11.10;99.90
17565;DHT22;62994;52.126;5.596;2023-04-06T12:07:04;11.20;99.90
17565;DHT22;62994;52.126;5.596;2023-04-06T12:09:33;11.10;99.90
17565;DHT22;62994;52.126;5.596;2023-04-06T12:12:01;11.00;99.90
17565;DHT22;62994;52.126;5.596;2023-04-06T12:14:29;10.90;99.90
17565;DHT22;62994;52.126;5.596;2023-04-06T12:16:56;10.90;99.90
17565;DHT22;62994;52.126;5.596;2023-04-06T12:19:24;10.90;99.90
17565;DHT22;62994;52.126;5.596;2023-04-06T12:21:57;10.90;99.90
17565;DHT22;62994;52.126;5.596;2023-04-06T12:24:24;10.80;99.90
17565;DHT22;62994;52.126;5.596;2023-04-06T12:26:53;10.80;99.90
17565;DHT22;62994;52.126;5.596;2023-04-06T12:29:20;10.80;99.90
17565;DHT22;62994;52.126;5.596;2023-04-06T12:31:47;10.80;99.90
17565;DHT22;62994;52.126;5.596;2023-04-06T12:34:14;10.70;99.90
17565;DHT22;62994;52.126;5.596;2023-04-06T12:36:41;10.60;99.90
17565;DHT22;62994;52.126;5.596;2023-04-06T12:39:08;10.60;99.90
17565;DHT22;62994;52.126;5.596;2023-04-06T12:41:36;10.60;99.90
17565;DHT22;62994;52.126;5.596;2023-04-06T12:44:07;10.70;99.90
17565;DHT22;62994;52.126;5.596;2023-04-06T12:46:34;10.70;99.90
17565;DHT22;62994;52.126;5.596;2023-04-06T12:49:02;10.70;99.90
17565;DHT22;62994;52.126;5.596;2023-04-06T12:51:29;10.60;99.90
17565;DHT22;62994;52.126;5.596;2023-04-06T12:53:56;10.60;99.90
17565;DHT22;62994;52.126;5.596;2023-04-06T12:56:23;10.60;99.90
17565;DHT22;62994;52.126;5.596;2023-04-06T12:58:51;10.50;99.90
17565;DHT22;62994;52.126;5.596;2023-04-06T13:01:20;10.40;99.90
17565;DHT22;62994;52.126;5.596;2023-04-06T13:03:47;10.40;99.90
17565;DHT22;62994;52.126;5.596;2023-04-06T13:06:14;10.40;99.90
17565;DHT22;62994;52.126;5.596;2023-04-06T13:08:41;10.40;99.90
17565;DHT22;62994;52.126;5.596;2023-04-06T13:11:08;10.50;99.90
17565;DHT22;62994;52.126;5.596;2023-04-06T13:13:36;10.50;99.90
17565;DHT22;62994;52.126;5.596;2023-04-06T13:16:04;10.50;99.90
17565;DHT22;62994;52.126;5.596;2023-04-06T13:18:33;10.40;99.90
17565;DHT22;62994;52.126;5.596;2023-04-06T13:21:02;10.40;99.90
17565;DHT22;62994;52.126;5.596;2023-04-06T13:23:29;10.40;99.90
17565;DHT22;62994;52.126;5.596;2023-04-06T13:26:00;10.40;99.90
17565;DHT22;62994;52.126;5.596;2023-04-06T13:28:29;10.40;99.90
17565;DHT22;62994;52.126;5.596;2023-04-06T13:30:58;10.40;99.90
17565;DHT22;62994;52.126;5.596;2023-04-06T13:33:28;10.40;99.90
17565;DHT22;62994;52.126;5.596;2023-04-06T13:35:57;10.40;99.90
17565;DHT22;62994;52.126;5.596;2023-04-06T13:38:24;10.40;99.90
17565;DHT22;62994;52.126;5.596;2023-04-06T13:40:51;10.30;99.90
17565;DHT22;62994;52.126;5.596;2023-04-06T13:43:18;10.30;99.90
17565;DHT22;62994;52.126;5.596;2023-04-06T13:45:49;10.30;99.90
17565;DHT22;62994;52.126;5.596;2023-04-06T13:48:18;10.30;99.90
17565;DHT22;62994;52.126;5.596;2023-04-06T13:50:45;10.30;99.90
17565;DHT22;62994;52.126;5.596;2023-04-06T13:53:14;10.30;99.90
17565;DHT22;62994;52.126;5.596;2023-04-06T13:55:41;10.30;99.90
17565;DHT22;62994;52.126;5.596;2023-04-06T13:58:08;10.20;99.90
17565;DHT22;62994;52.126;5.596;2023-04-06T14:00:40;10.30;99.90
17565;DHT22;62994;52.126;5.596;2023-04-06T14:03:07;10.20;99.90
17565;DHT22;62994;52.126;5.596;2023-04-06T14:05:34;10.20;99.90
17565;DHT22;62994;52.126;5.596;2023-04-06T14:08:01;10.20;99.90
17565;DHT22;62994;52.126;5.596;2023-04-06T14:10:30;10.10;99.90
17565;DHT22;62994;52.126;5.596;2023-04-06T14:12:57;10.20;99.90
17565;DHT22;62994;52.126;5.596;2023-04-06T14:15:25;10.20;99.90
17565;DHT22;62994;52.126;5.596;2023-04-06T14:17:53;10.20;99.90
17565;DHT22;62994;52.126;5.596;2023-04-06T14:20:21;10.10;99.90
17565;DHT22;62994;52.126;5.596;2023-04-06T14:22:48;10.10;99.90
17565;DHT22;62994;52.126;5.596;2023-04-06T14:25:17;10.10;99.90
17565;DHT22;62994;52.126;5.596;2023-04-06T14:27:45;10.10;99.90
17565;DHT22;62994;52.126;5.596;2023-04-06T14:30:13;10.10;99.90
17565;DHT22;62994;52.126;5.596;2023-04-06T14:32:40;10.00;99.90
17565;DHT22;62994;52.126;5.596;2023-04-06T14:35:08;10.00;99.90
17565;DHT22;62994;52.126;5.596;2023-04-06T14:37:35;10.00;99.90
17565;DHT22;62994;52.126;5.596;2023-04-06T14:40:02;10.00;99.90
17565;DHT22;62994;52.126;5.596;2023-04-06T14:42:29;10.10;99.90
17565;DHT22;62994;52.126;5.596;2023-04-06T14:44:58;10.00;99.90
17565;DHT22;62994;52.126;5.596;2023-04-06T14:47:25;10.10;99.90
17565;DHT22;62994;52.126;5.596;2023-04-06T14:49:52;10.10;99.90
17565;DHT22;62994;52.126;5.596;2023-04-06T14:52:20;10.10;99.90
17565;DHT22;62994;52.126;5.596;2023-04-06T14:54:47;10.00;99.90
17565;DHT22;62994;52.126;5.596;2023-04-06T14:57:14;10.00;99.90
17565;DHT22;62994;52.126;5.596;2023-04-06T14:59:41;10.00;99.90
17565;DHT22;62994;52.126;5.596;2023-04-06T15:02:09;10.00;99.90
17565;DHT22;62994;52.126;5.596;2023-04-06T15:04:36;10.00;99.90
17565;DHT22;62994;52.126;5.596;2023-04-06T15:07:04;9.90;99.90
17565;DHT22;62994;52.126;5.596;2023-04-06T15:09:31;9.90;99.90
17565;DHT22;62994;52.126;5.596;2023-04-06T15:11:58;9.70;99.90
17565;DHT22;62994;52.126;5.596;2023-04-06T15:14:26;9.70;99.90
17565;DHT22;62994;52.126;5.596;2023-04-06T15:16:53;9.70;99.90
17565;DHT22;62994;52.126;5.596;2023-04-06T15:19:21;9.70;99.90
17565;DHT22;62994;52.126;5.596;2023-04-06T15:21:48;9.70;99.90
17565;DHT22;62994;52.126;5.596;2023-04-06T15:24:15;9.60;99.90
17565;DHT22;62994;52.126;5.596;2023-04-06T15:26:42;9.60;99.90
17565;DHT22;62994;52.126;5.596;2023-04-06T15:29:11;9.60;99.90
17565;DHT22;62994;52.126;5.596;2023-04-06T15:31:38;9.60;99.90
17565;DHT22;62994;52.126;5.596;2023-04-06T15:34:06;9.50;99.90
17565;DHT22;62994;52.126;5.596;2023-04-06T15:36:35;9.50;99.90
17565;DHT22;62994;52.126;5.596;2023-04-06T15:39:02;9.50;99.90
17565;DHT22;62994;52.126;5.596;2023-04-06T15:41:33;9.50;99.90
17565;DHT22;62994;52.126;5.596;2023-04-06T15:44:01;9.50;99.90
17565;DHT22;62994;52.126;5.596;2023-04-06T15:46:29;9.50;99.90